Time;durP1;ratioP1;P1;durP2;ratioP2;P2;SDS_P1;SDS_P2;PMS_P1;PMS_P2;Temp;Humidity;BMP_temperature;BMP_pressure;BME280_temperature;BME280_humidity;BME280_pressure;Samples;Min_cycle;Max_cycle;Signal;HPM_P1;HPM_P2
2023/11/23 00:04:25;;;;;;;1999.90;999.90;;;;;;;12.61;76.44;102283.38;10375163;28;20077;-76
2023/11/23 00:09:28;;;;;;;1999.90;999.90;;;;;;;12.93;74.80;102280.28;10357571;28;20056;-76
2023/11/23 00:14:32;;;;;;;1999.90;999.90;;;;;;;12.75;76.51;102289.81;10358134;28;20133;-76
2023/11/23 00:19:34;;;;;;;1999.90;999.90;;;;;;;13.28;75.27;102269.97;10374566;28;20046;-77
2023/11/23 00:24:38;;;;;;;1999.90;999.90;;;;;;;12.19;79.18;102268.47;10374339;28;20457;-77
2023/11/23 00:29:41;;;;;;;1999.90;999.90;;;;;;;12.46;79.71;102263.00;10357203;28;20049;-76
2023/11/23 00:34:43;;;;;;;1999.90;999.90;;;;;;;12.60;80.52;102251.91;10374339;28;20064;-77
2023/11/23 00:39:46;;;;;;;1999.90;999.90;;;;;;;12.33;79.14;102253.94;10356704;28;20510;-76
2023/11/23 00:44:48;;;;;;;1999.90;999.90;;;;;;;12.56;79.71;102243.31;10356665;28;20049;-77
2023/11/23 00:49:51;;;;;;;1999.90;999.90;;;;;;;13.28;77.18;102241.03;10356636;28;20484;-77
2023/11/23 00:54:53;;;;;;;1999.90;999.90;;;;;;;12.63;80.01;102231.59;10356699;28;20069;-76
2023/11/23 00:59:55;;;;;;;1999.90;999.90;;;;;;;13.03;77.29;102218.50;10356314;28;20060;-77
2023/11/23 01:04:58;;;;;;;1999.90;999.90;;;;;;;13.27;78.08;102220.94;10360645;28;20100;-77
2023/11/23 01:10:00;;;;;;;1999.90;999.90;;;;;;;12.69;81.68;102224.38;10381645;28;20046;-76
2023/11/23 01:15:03;;;;;;;1999.90;999.90;;;;;;;13.00;80.37;102216.00;10381678;28;20088;-77
2023/11/23 01:20:07;;;;;;;1999.90;999.90;;;;;;;12.94;79.88;102217.09;10381318;28;20104;-77
2023/11/23 01:25:10;;;;;;;1999.90;999.90;;;;;;;13.37;77.90;102217.81;10380861;28;20390;-77
2023/11/23 01:30:12;;;;;;;1999.90;999.90;;;;;;;13.60;77.37;102210.63;10381036;28;20046;-77
2023/11/23 01:35:15;;;;;;;1999.90;999.90;;;;;;;12.48;82.84;102218.28;10380639;28;20046;-77
2023/11/23 01:40:17;;;;;;;1999.90;999.90;;;;;;;13.38;80.35;102205.50;10363259;28;20046;-77
2023/11/23 01:45:20;;;;;;;1999.90;999.90;;;;;;;13.22;79.43;102199.25;10380303;28;20046;-77
2023/11/23 01:50:25;;;;;;;1999.90;999.90;;;;;;;13.59;81.12;102202.81;10380037;28;20064;-77
2023/11/23 01:55:28;;;;;;;1999.90;999.90;;;;;;;13.55;79.36;102202.97;10379876;28;20480;-77
2023/11/23 02:00:31;;;;;;;1999.90;999.90;;;;;;;13.68;80.34;102202.34;10379648;28;20050;-77
2023/11/23 02:05:33;;;;;;;1999.90;999.90;;;;;;;14.08;78.79;102198.63;10380064;28;20074;-77
2023/11/23 02:10:35;;;;;;;1999.90;999.90;;;;;;;13.66;79.32;102180.53;10379361;28;20060;-77
2023/11/23 02:15:39;;;;;;;1999.90;999.90;;;;;;;13.81;78.46;102176.31;10361055;28;20050;-77
2023/11/23 02:20:46;;;;;;;1999.90;999.90;;;;;;;13.37;79.50;102177.53;10378746;28;20136;-77
2023/11/23 02:25:49;;;;;;;1999.90;999.90;;;;;;;13.77;78.31;102165.09;10361969;28;20073;-76
2023/11/23 02:30:51;;;;;;;1999.90;999.90;;;;;;;13.54;83.70;102160.94;10361106;28;20408;-76
2023/11/23 02:35:53;;;;;;;1999.90;999.90;;;;;;;13.41;82.60;102186.97;10378422;28;20132;-76
2023/11/23 02:40:57;;;;;;;1999.90;999.90;;;;;;;14.09;78.32;102183.69;10378218;28;20488;-76
2023/11/23 02:46:00;;;;;;;1999.90;999.90;;;;;;;13.67;79.54;102180.47;10377952;28;20116;-76
2023/11/23 02:51:02;;;;;;;1999.90;999.90;;;;;;;14.73;77.75;102183.97;10378040;28;20129;-77
2023/11/23 02:56:05;;;;;;;1999.90;999.90;;;;;;;14.44;75.96;102181.91;10377693;28;20382;-77
2023/11/23 03:01:07;;;;;;;1999.90;999.90;;;;;;;14.11;80.52;102189.72;10360024;28;20042;-77
2023/11/23 03:06:10;;;;;;;1999.90;999.90;;;;;;;14.48;79.49;102190.50;10377161;28;20108;-76
2023/11/23 03:11:20;;;;;;;1999.90;999.90;;;;;;;14.22;79.97;102191.81;10377000;28;20124;-77
2023/11/23 03:16:24;;;;;;;1999.90;999.90;;;;;;;14.43;79.57;102181.97;10360127;28;20053;-77
2023/11/23 03:21:26;;;;;;;1999.90;999.90;;;;;;;14.12;80.73;102180.88;10359264;28;20054;-77
2023/11/23 03:26:29;;;;;;;1999.90;999.90;;;;;;;14.44;78.53;102175.75;10376552;28;20100;-77
2023/11/23 03:31:31;;;;;;;1999.90;999.90;;;;;;;14.86;78.03;102172.69;10376333;28;20050;-77
2023/11/23 03:36:33;;;;;;;1999.90;999.90;;;;;;;14.27;79.53;102171.34;10376055;28;20497;-77
2023/11/23 03:41:36;;;;;;;1999.90;999.90;;;;;;;14.60;81.28;102165.31;10375958;28;20056;-77
2023/11/23 03:46:38;;;;;;;1999.90;999.90;;;;;;;14.65;78.29;102152.75;10358314;28;20371;-77
2023/11/23 03:51:40;;;;;;;1999.90;999.90;;;;;;;14.60;81.06;102155.59;10358302;28;20072;-77
2023/11/23 03:56:43;;;;;;;1999.90;999.90;;;;;;;14.30;81.77;102153.59;10358423;28;20054;-77
2023/11/23 04:01:47;;;;;;;1999.90;999.90;;;;;;;14.42;82.51;102154.75;10357928;28;20054;-77
2023/11/23 04:06:49;;;;;;;1999.90;999.90;;;;;;;14.70;79.05;102145.44;10375114;28;20096;-77
2023/11/23 04:11:53;;;;;;;1999.90;999.90;;;;;;;14.63;82.56;102138.78;10374879;28;20046;-77
2023/11/23 04:16:55;;;;;;;1999.90;999.90;;;;;;;14.70;80.49;102131.41;10374976;28;20056;-77
2023/11/23 04:21:59;;;;;;;1999.90;999.90;;;;;;;14.54;79.67;102133.97;10374138;28;20046;-77
2023/11/23 04:27:01;;;;;;;1999.90;999.90;;;;;;;14.19;81.50;102134.00;10357802;28;20081;-77
2023/11/23 04:32:04;;;;;;;1999.90;999.90;;;;;;;15.33;78.04;102118.25;10374539;28;20046;-77
2023/11/23 04:37:07;;;;;;;1999.90;999.90;;;;;;;14.16;82.15;102131.56;10374530;28;20133;-77
2023/11/23 04:42:09;;;;;;;1999.90;999.90;;;;;;;14.70;81.90;102120.88;10387538;28;20133;-76
2023/11/23 04:47:11;;;;;;;1999.90;999.90;;;;;;;14.37;81.31;102119.03;10370236;28;20053;-76
2023/11/23 04:52:14;;;;;;;1999.90;999.90;;;;;;;14.78;80.65;102106.34;10370428;28;20053;-77
2023/11/23 04:57:17;;;;;;;1999.90;999.90;;;;;;;14.51;81.92;102111.28;10369916;28;20054;-76
2023/11/23 05:02:20;;;;;;;1999.90;999.90;;;;;;;14.92;80.20;102116.13;10370100;28;20099;-77
2023/11/23 05:07:24;;;;;;;1999.90;999.90;;;;;;;14.85;81.17;102123.50;10369966;28;20049;-77
2023/11/23 05:12:26;;;;;;;1999.90;999.90;;;;;;;14.70;80.27;102124.34;10387074;28;20130;-77
2023/11/23 05:17:30;;;;;;;1999.90;999.90;;;;;;;14.92;79.79;102128.47;10369784;28;20050;-76
2023/11/23 05:22:33;;;;;;;1999.90;999.90;;;;;;;14.93;80.53;102116.97;10369544;28;20081;-76
2023/11/23 05:27:35;;;;;;;1999.90;999.90;;;;;;;14.67;79.86;102135.88;10370119;28;20096;-76
2023/11/23 05:32:37;;;;;;;1999.90;999.90;;;;;;;14.83;80.88;102116.63;10386759;28;20042;-76
2023/11/23 05:37:40;;;;;;;1999.90;999.90;;;;;;;15.09;78.47;102099.34;10369085;28;20080;-77
2023/11/23 05:42:43;;;;;;;1999.90;999.90;;;;;;;14.83;82.87;102098.19;10386701;28;20128;-77
2023/11/23 05:48:02;;;;;;;1999.90;999.90;;;;;;;14.74;80.57;102099.50;10371438;28;20514;-76
2023/11/23 05:53:04;;;;;;;1999.90;999.90;;;;;;;14.83;80.36;102095.53;10379609;28;20056;-76
2023/11/23 05:58:07;;;;;;;1999.90;999.90;;;;;;;14.99;79.60;102092.91;10362764;28;20057;-77
2023/11/23 06:03:10;;;;;;;1999.90;999.90;;;;;;;14.80;81.96;102075.47;10379825;28;20096;-76
2023/11/23 06:08:12;;;;;;;1999.90;999.90;;;;;;;14.69;83.05;102080.47;10379400;28;20481;-76
2023/11/23 06:13:15;;;;;;;1999.90;999.90;;;;;;;15.12;79.62;102085.16;10362411;28;20061;-77
2023/11/23 06:18:18;;;;;;;1999.90;999.90;;;;;;;14.69;81.22;102083.09;10379637;28;20050;-75
2023/11/23 06:23:20;;;;;;;1999.90;999.90;;;;;;;14.58;81.75;102083.66;10378711;28;20100;-76
2023/11/23 06:28:24;;;;;;;1999.90;999.90;;;;;;;14.72;81.99;102085.56;10361523;28;20052;-77
2023/11/23 06:33:27;;;;;;;1999.90;999.90;;;;;;;14.93;80.72;102066.84;10378399;28;20045;-76
2023/11/23 06:38:29;;;;;;;1999.90;999.90;;;;;;;14.92;79.88;102067.81;10361015;28;20057;-76
2023/11/23 06:43:32;;;;;;;1999.90;999.90;;;;;;;14.89;82.00;102049.53;10360779;28;20041;-76
2023/11/23 06:48:34;;;;;;;1999.90;999.90;;;;;;;15.02;80.25;102063.72;10360596;28;20061;-76
2023/11/23 06:53:46;;;;;;;1999.90;999.90;;;;;;;14.83;81.47;102067.38;10377916;28;20064;-76
2023/11/23 06:58:49;;;;;;;1999.90;999.90;;;;;;;14.82;80.12;102062.19;10361576;28;20060;-76
2023/11/23 07:03:52;;;;;;;1999.90;999.90;;;;;;;15.28;80.98;102061.38;10359715;28;20049;-76
2023/11/23 07:08:57;;;;;;;1999.90;999.90;;;;;;;14.99;79.72;102050.69;10377537;28;20136;-76
2023/11/23 07:14:00;;;;;;;1999.90;999.90;;;;;;;15.42;79.42;102054.38;10360119;28;20057;-76
2023/11/23 07:19:03;;;;;;;1999.90;999.90;;;;;;;14.86;81.72;102039.97;10376840;28;20049;-76
2023/11/23 07:24:05;;;;;;;1999.90;999.90;;;;;;;14.65;81.39;102039.41;10376575;28;20108;-76
2023/11/23 07:29:08;;;;;;;1999.90;999.90;;;;;;;14.85;82.01;102031.22;10359410;28;20441;-76
2023/11/23 07:34:11;;;;;;;1999.90;999.90;;;;;;;14.85;82.08;102035.66;10376119;28;20045;-75
2023/11/23 07:39:16;;;;;;;1999.90;999.90;;;;;;;15.36;79.42;102030.97;10376044;28;20416;-75
2023/11/23 07:44:22;;;;;;;1999.90;999.90;;;;;;;15.27;79.96;102034.16;10376016;28;20054;-75
2023/11/23 07:49:25;;;;;;;1999.90;999.90;;;;;;;14.84;78.99;102026.03;10375753;28;20523;-75
2023/11/23 07:54:27;;;;;;;1999.90;999.90;;;;;;;14.85;81.06;102027.75;10358296;28;20056;-75
2023/11/23 07:59:34;;;;;;;1999.90;999.90;;;;;;;15.08;81.38;102055.47;10375256;28;20054;-75
2023/11/23 08:04:36;;;;;;;1999.90;999.90;;;;;;;15.02;80.07;102053.19;10375277;28;20100;-75
2023/11/23 08:09:39;;;;;;;1999.90;999.90;;;;;;;15.19;80.07;102049.56;10357589;28;20053;-75
2023/11/23 08:14:41;;;;;;;1999.90;999.90;;;;;;;15.08;78.92;102039.66;10374397;28;20133;-74
2023/11/23 08:19:46;;;;;;;1999.90;999.90;;;;;;;15.32;80.42;102029.47;10357191;28;20469;-76
2023/11/23 08:24:48;;;;;;;1999.90;999.90;;;;;;;15.00;80.89;102032.16;10374519;28;20486;-75
2023/11/23 08:29:52;;;;;;;1999.90;999.90;;;;;;;15.61;80.23;102038.31;10357103;28;20058;-75
2023/11/23 08:34:56;;;;;;;1999.90;999.90;;;;;;;15.71;79.04;102040.41;10374476;28;20413;-75
2023/11/23 08:39:58;;;;;;;1999.90;999.90;;;;;;;15.80;77.65;102034.59;10357278;28;20077;-76
2023/11/23 08:45:00;;;;;;;1999.90;999.90;;;;;;;15.88;76.75;102032.38;10374065;28;20046;-76
2023/11/23 08:50:05;;;;;;;1999.90;999.90;;;;;;;15.01;78.95;102033.88;10356902;28;20053;-75
2023/11/23 08:55:08;;;;;;;1999.90;999.90;;;;;;;15.46;78.54;102011.97;10356672;28;20076;-75
2023/11/23 09:00:12;;;;;;;1999.90;999.90;;;;;;;15.91;78.60;101987.28;10356669;28;20050;-75
2023/11/23 09:05:15;;;;;;;1999.90;999.90;;;;;;;15.57;79.38;102006.94;10374028;28;20049;-75
2023/11/23 09:10:17;;;;;;;1999.90;999.90;;;;;;;16.01;77.31;102024.56;10373656;28;20056;-75
2023/11/23 09:15:20;;;;;;;1999.90;999.90;;;;;;;15.53;77.67;102022.09;10373720;28;20405;-76
2023/11/23 09:20:25;;;;;;;1999.90;999.90;;;;;;;16.02;77.81;101997.22;10373441;28;20065;-75
2023/11/23 09:25:29;;;;;;;1999.90;999.90;;;;;;;16.31;75.75;101958.38;10376458;28;20481;-75
2023/11/23 09:30:32;;;;;;;1999.90;999.90;;;;;;;15.88;78.41;102011.22;10380956;28;20088;-76
2023/11/23 09:35:38;;;;;;;1999.90;999.90;;;;;;;16.20;78.32;101989.06;10363877;28;20081;-76
2023/11/23 09:40:40;;;;;;;1999.90;999.90;;;;;;;16.02;78.37;101981.38;10363377;28;20057;-75
2023/11/23 09:45:43;;;;;;;1999.90;999.90;;;;;;;16.08;77.72;101978.31;10346848;28;20046;-75
2023/11/23 09:50:46;;;;;;;1999.90;999.90;;;;;;;16.11;76.50;101959.63;10380318;28;20057;-76
2023/11/23 09:55:52;;;;;;;1999.90;999.90;;;;;;;16.90;74.00;101946.72;10362551;28;20491;-76
2023/11/23 10:00:55;;;;;;;1999.90;999.90;;;;;;;16.25;76.40;101927.06;10379973;28;20568;-75
2023/11/23 10:05:57;;;;;;;1999.90;999.90;;;;;;;16.65;74.80;101928.94;10379594;28;20046;-75
2023/11/23 10:11:02;;;;;;;1999.90;999.90;;;;;;;15.91;77.46;101931.81;10379354;28;20448;-74
2023/11/23 10:16:05;;;;;;;1999.90;999.90;;;;;;;17.27;74.80;101918.66;10362450;28;20046;-76
2023/11/23 10:21:11;;;;;;;1999.90;999.90;;;;;;;16.09;78.08;101923.72;10361425;28;20053;-76
2023/11/23 10:26:14;;;;;;;1999.90;999.90;;;;;;;16.27;76.76;101913.75;10361638;28;20061;-75
2023/11/23 10:31:16;;;;;;;1999.90;999.90;;;;;;;16.49;76.01;101931.72;10378562;28;20050;-76
2023/11/23 10:36:20;;;;;;;1999.90;999.90;;;;;;;16.90;75.65;101938.78;10367952;23;20046;-75
2023/11/23 10:41:23;;;;;;;1999.90;999.90;;;;;;;16.61;74.35;101924.78;10377476;28;20049;-75
2023/11/23 10:46:26;;;;;;;1999.90;999.90;;;;;;;16.87;74.33;101912.53;10376986;28;20533;-76
2023/11/23 10:51:31;;;;;;;1999.90;999.90;;;;;;;16.15;77.91;101903.03;10377334;28;20049;-74
2023/11/23 10:56:34;;;;;;;1999.90;999.90;;;;;;;16.63;77.06;101885.91;10376517;28;20485;-75
2023/11/23 11:01:37;;;;;;;1999.90;999.90;;;;;;;16.73;75.28;101873.75;10376459;28;20050;-76
2023/11/23 11:06:41;;;;;;;1999.90;999.90;;;;;;;16.45;77.31;101851.78;10377490;28;20129;-75
2023/11/23 11:11:45;;;;;;;1999.90;999.90;;;;;;;16.82;75.97;101859.91;10375981;28;20077;-75
2023/11/23 11:16:47;;;;;;;1999.90;999.90;;;;;;;16.94;75.71;101850.34;10376231;28;20060;-75
2023/11/23 11:21:50;;;;;;;1999.90;999.90;;;;;;;16.81;76.59;101836.22;10376649;28;20042;-75
2023/11/23 11:27:03;;;;;;;1999.90;999.90;;;;;;;16.86;75.77;101832.34;10377144;28;20140;-75
2023/11/23 11:32:08;;;;;;;1999.90;999.90;;;;;;;16.92;75.67;101814.38;10376297;28;20042;-75
2023/11/23 11:37:11;;;;;;;1999.90;999.90;;;;;;;16.59;76.27;101828.88;10376189;28;20061;-75
2023/11/23 11:42:15;;;;;;;1999.90;999.90;;;;;;;16.67;74.51;101818.63;10358513;28;20050;-76
2023/11/23 11:47:18;;;;;;;1999.90;999.90;;;;;;;17.29;73.31;101799.44;10374480;28;20056;-75
2023/11/23 11:52:21;;;;;;;1999.90;999.90;;;;;;;16.75;75.62;101805.75;10374507;28;20046;-75
2023/11/23 11:57:23;;;;;;;1999.90;999.90;;;;;;;16.91;73.15;101800.28;10374592;28;20057;-75
2023/11/23 12:02:25;;;;;;;1999.90;999.90;;;;;;;17.09;73.72;101790.25;10358053;28;20485;-75
2023/11/23 12:07:28;;;;;;;1999.90;999.90;;;;;;;17.11;73.57;101783.03;10375591;28;20054;-75
2023/11/23 12:12:31;;;;;;;1999.90;999.90;;;;;;;17.27;72.02;101778.38;10374942;28;20137;-75
2023/11/23 12:17:33;;;;;;;1999.90;999.90;;;;;;;16.96;72.95;101771.72;10374783;28;20050;-75
2023/11/23 12:22:36;;;;;;;1999.90;999.90;;;;;;;16.90;73.91;101765.06;10374599;28;20089;-75
2023/11/23 12:27:41;;;;;;;1999.90;999.90;;;;;;;17.53;72.19;101749.19;10373454;28;20057;-75
2023/11/23 12:32:43;;;;;;;1999.90;999.90;;;;;;;16.92;73.19;101737.66;10373326;28;20133;-75
2023/11/23 12:37:46;;;;;;;1999.90;999.90;;;;;;;17.34;74.01;101722.38;10374197;28;20509;-75
2023/11/23 12:42:48;;;;;;;1999.90;999.90;;;;;;;16.98;74.71;101731.94;10372984;28;20132;-75
2023/11/23 12:47:51;;;;;;;1999.90;999.90;;;;;;;17.14;73.79;101715.84;10374112;28;20485;-76
2023/11/23 12:52:54;;;;;;;1999.90;999.90;;;;;;;17.18;74.75;101690.84;10372854;28;20046;-75
2023/11/23 12:57:56;;;;;;;1999.90;999.90;;;;;;;17.52;73.72;101678.69;10373308;28;20083;-75
2023/11/23 13:02:58;;;;;;;1999.90;999.90;;;;;;;16.98;73.67;101661.38;10381265;28;20076;-75
2023/11/23 13:08:02;;;;;;;1999.90;999.90;;;;;;;17.21;73.98;101658.88;10382040;28;20056;-75
2023/11/23 13:13:05;;;;;;;1999.90;999.90;;;;;;;17.27;74.15;101658.44;10380573;28;20390;-75
2023/11/23 13:18:07;;;;;;;1999.90;999.90;;;;;;;17.26;73.53;101654.09;10381492;28;20081;-76
2023/11/23 13:23:10;;;;;;;1999.90;999.90;;;;;;;17.53;73.44;101642.47;10380239;28;20050;-75
2023/11/23 13:28:13;;;;;;;1999.90;999.90;;;;;;;16.88;75.94;101632.09;10380013;28;20132;-75
2023/11/23 13:33:22;;;;;;;1999.90;999.90;;;;;;;17.83;71.81;101624.28;10379999;28;20061;-75
2023/11/23 13:38:24;;;;;;;1999.90;999.90;;;;;;;17.07;72.87;101628.97;10380598;28;20058;-75
2023/11/23 13:43:27;;;;;;;1999.90;999.90;;;;;;;17.15;73.12;101631.06;10380551;28;20046;-75
2023/11/23 13:48:31;;;;;;;1999.90;999.90;;;;;;;17.46;73.09;101629.66;10380267;28;20482;-75
2023/11/23 13:53:33;;;;;;;1999.90;999.90;;;;;;;16.68;74.98;101601.72;10378937;28;20452;-75
2023/11/23 13:58:36;;;;;;;1999.90;999.90;;;;;;;17.43;72.78;101613.16;10362955;28;20050;-75
2023/11/23 14:03:38;;;;;;;1999.90;999.90;;;;;;;17.09;73.78;101599.75;10378380;28;20157;-75
2023/11/23 14:08:41;;;;;;;1999.90;999.90;;;;;;;17.47;72.36;101593.47;10378616;28;20148;-75
2023/11/23 14:13:44;;;;;;;1999.90;999.90;;;;;;;17.09;72.97;101578.59;10377235;28;20057;-75
2023/11/23 14:18:47;;;;;;;1999.90;999.90;;;;;;;16.99;74.69;101570.47;10378032;28;20054;-75
2023/11/23 14:23:49;;;;;;;1999.90;999.90;;;;;;;17.15;74.05;101570.22;10378235;28;20073;-75
2023/11/23 14:28:53;;;;;;;1999.90;999.90;;;;;;;17.02;74.54;101580.84;10378774;28;20483;-75
2023/11/23 14:33:56;;;;;;;1999.90;999.90;;;;;;;16.75;74.70;101590.72;10378926;28;20046;-74
2023/11/23 14:38:59;;;;;;;1999.90;999.90;;;;;;;17.33;74.45;101575.09;10378375;28;20089;-75
2023/11/23 14:44:01;;;;;;;1999.90;999.90;;;;;;;17.68;71.89;101561.03;10378365;28;20054;-75
2023/11/23 14:49:05;;;;;;;1999.90;999.90;;;;;;;16.54;75.78;101554.25;10376964;28;20058;-75
2023/11/23 14:54:11;;;;;;;1999.90;999.90;;;;;;;17.05;74.47;101534.81;10378326;28;20100;-74
2023/11/23 14:59:17;;;;;;;1999.90;999.90;;;;;;;17.07;72.88;101536.38;10377849;28;20053;-75
2023/11/23 15:04:20;;;;;;;1999.90;999.90;;;;;;;16.59;75.16;101520.41;10376382;28;20048;-75
2023/11/23 15:09:22;;;;;;;1999.90;999.90;;;;;;;17.19;74.18;101500.22;10377445;28;20060;-75
2023/11/23 15:14:26;;;;;;;1999.90;999.90;;;;;;;16.47;75.71;101497.50;10376056;28;20041;-75
2023/11/23 15:19:34;;;;;;;1999.90;999.90;;;;;;;16.92;75.94;101536.66;10375718;28;20053;-75
2023/11/23 15:24:37;;;;;;;1999.90;999.90;;;;;;;17.78;71.63;101530.25;10376394;28;20482;-75
2023/11/23 15:29:40;;;;;;;1999.90;999.90;;;;;;;16.86;75.75;101508.84;10359225;28;20061;-75
2023/11/23 15:34:42;;;;;;;1999.90;999.90;;;;;;;17.00;74.04;101499.91;10375298;28;20137;-75
2023/11/23 15:39:45;;;;;;;1999.90;999.90;;;;;;;16.57;76.59;101495.88;10375911;28;20073;-75
2023/11/23 15:44:48;;;;;;;1999.90;999.90;;;;;;;16.82;74.79;101515.28;10374846;28;20049;-75
2023/11/23 15:49:53;;;;;;;1999.90;999.90;;;;;;;17.23;74.14;101499.06;10375695;28;20556;-75
2023/11/23 15:54:56;;;;;;;1999.90;999.90;;;;;;;16.92;75.15;101521.63;10375830;28;20046;-75
2023/11/23 15:59:58;;;;;;;1999.90;999.90;;;;;;;16.46;74.87;101512.53;10375580;28;20049;-73
2023/11/23 16:05:01;;;;;;;1999.90;999.90;;;;;;;16.74;75.87;101513.19;10375273;28;20054;-75
2023/11/23 16:10:04;;;;;;;1999.90;999.90;;;;;;;16.71;76.07;101513.44;10375282;28;20053;-75
2023/11/23 16:15:07;;;;;;;1999.90;999.90;;;;;;;16.86;75.17;101520.28;10373945;28;20050;-75
2023/11/23 16:20:14;;;;;;;1999.90;999.90;;;;;;;16.92;74.36;101518.97;10375037;28;20046;-75
2023/11/23 16:25:17;;;;;;;1999.90;999.90;;;;;;;16.39;76.46;101495.41;10374871;28;20132;-74
2023/11/23 16:30:19;;;;;;;1999.90;999.90;;;;;;;16.85;74.84;101492.13;10373304;28;20140;-75
2023/11/23 16:35:22;;;;;;;1999.90;999.90;;;;;;;16.45;76.25;101489.69;10374512;28;20042;-75
2023/11/23 16:40:25;;;;;;;1999.90;999.90;;;;;;;16.96;74.50;101475.47;10372933;28;20417;-75
2023/11/23 16:45:28;;;;;;;1999.90;999.90;;;;;;;16.92;75.14;101465.25;10374169;28;20457;-75
2023/11/23 16:50:30;;;;;;;1999.90;999.90;;;;;;;16.87;74.36;101444.41;10374723;28;20052;-74
2023/11/23 16:55:37;;;;;;;1999.90;999.90;;;;;;;16.78;74.87;101430.03;10374246;28;20050;-74
2023/11/23 17:00:40;;;;;;;1999.90;999.90;;;;;;;16.31;77.93;101434.34;10356733;28;20064;-74
2023/11/23 17:05:44;;;;;;;1999.90;999.90;;;;;;;16.62;75.93;101432.94;10372614;28;20042;-74
2023/11/23 17:10:46;;;;;;;1999.90;999.90;;;;;;;16.37;78.79;101425.13;10373160;28;20052;-75
2023/11/23 17:15:48;;;;;;;1999.90;999.90;;;;;;;16.97;77.43;101423.44;10372474;28;20050;-75
2023/11/23 17:20:51;;;;;;;1999.90;999.90;;;;;;;16.10;79.97;101426.13;10373761;28;20046;-74
2023/11/23 17:25:53;;;;;;;1999.90;999.90;;;;;;;16.71;77.04;101415.59;10373509;28;20061;-75
2023/11/23 17:30:55;;;;;;;1999.90;999.90;;;;;;;16.86;77.17;101410.97;10372172;28;20057;-75
2023/11/23 17:35:58;;;;;;;1999.90;999.90;;;;;;;16.31;79.29;101395.53;10373053;28;20133;-75
2023/11/23 17:41:00;;;;;;;1999.90;999.90;;;;;;;16.42;77.62;101388.63;10373601;28;20054;-75
2023/11/23 17:46:03;;;;;;;1999.90;999.90;;;;;;;16.60;78.23;101379.34;10375631;28;20133;-75
2023/11/23 17:51:06;;;;;;;1999.90;999.90;;;;;;;16.54;78.02;101382.44;10380346;28;20050;-75
2023/11/23 17:56:09;;;;;;;1999.90;999.90;;;;;;;16.28;78.43;101373.78;10379028;28;20060;-75
2023/11/23 18:01:12;;;;;;;1999.90;999.90;;;;;;;16.23;77.61;101374.13;10379937;28;20133;-75
2023/11/23 18:06:15;;;;;;;1999.90;999.90;;;;;;;16.34;78.03;101360.16;10379717;28;20142;-74
2023/11/23 18:11:18;;;;;;;1999.90;999.90;;;;;;;16.05;78.09;101384.19;10379772;28;20057;-76
2023/11/23 18:16:21;;;;;;;1999.90;999.90;;;;;;;16.46;77.84;101355.75;10379861;28;20081;-75
2023/11/23 18:21:23;;;;;;;1999.90;999.90;;;;;;;16.46;77.20;101353.13;10379333;28;20168;-74
2023/11/23 18:26:25;;;;;;;1999.90;999.90;;;;;;;17.03;74.35;101343.59;10378804;28;20081;-75
2023/11/23 18:31:28;;;;;;;1999.90;999.90;;;;;;;16.55;77.08;101339.22;10377907;28;20473;-75
2023/11/23 18:36:33;;;;;;;1999.90;999.90;;;;;;;16.25;81.77;101327.28;10377904;28;20104;-75
2023/11/23 18:41:36;;;;;;;1999.90;999.90;;;;;;;15.99;81.93;101326.56;10377368;28;20050;-75
2023/11/23 18:46:38;;;;;;;1999.90;999.90;;;;;;;16.75;81.07;101303.34;10378443;28;20081;-75
2023/11/23 18:51:41;;;;;;;1999.90;999.90;;;;;;;16.18;81.85;101299.63;10377307;28;20556;-75
2023/11/23 18:56:43;;;;;;;1999.90;999.90;;;;;;;16.26;82.38;101297.28;10377449;28;20046;-75
2023/11/23 19:01:46;;;;;;;1999.90;999.90;;;;;;;16.77;80.90;101290.00;10376551;28;20077;-74
2023/11/23 19:06:48;;;;;;;1999.90;999.90;;;;;;;16.02;82.32;101294.63;10376437;28;20041;-74
2023/11/23 19:11:56;;;;;;;1999.90;999.90;;;;;;;16.72;82.56;101285.06;10376253;28;20484;-74
2023/11/23 19:17:03;;;;;;;1999.90;999.90;;;;;;;16.28;81.88;101284.78;10377573;28;20108;-74
2023/11/23 19:22:07;;;;;;;1999.90;999.90;;;;;;;16.20;85.15;101273.94;10376814;28;20400;-75
2023/11/23 19:27:10;;;;;;;1999.90;999.90;;;;;;;16.37;85.99;101270.06;10376462;28;20050;-74
2023/11/23 19:32:20;;;;;;;1999.90;999.90;;;;;;;16.60;84.55;101273.63;10375722;28;20050;-74
2023/11/23 19:37:22;;;;;;;1999.90;999.90;;;;;;;16.71;85.16;101271.00;10359013;28;20050;-75
2023/11/23 19:42:26;;;;;;;1999.90;999.90;;;;;;;15.91;88.23;101265.53;10376417;28;20045;-75
2023/11/23 19:47:29;;;;;;;1999.90;999.90;;;;;;;16.35;87.65;101256.13;10374763;28;20046;-76
2023/11/23 19:52:35;;;;;;;1999.90;999.90;;;;;;;16.97;85.89;101251.50;10375703;28;20076;-76
2023/11/23 19:57:38;;;;;;;1999.90;999.90;;;;;;;16.49;86.84;101245.38;10374616;28;20058;-75
2023/11/23 20:02:41;;;;;;;1999.90;999.90;;;;;;;16.78;85.67;101234.38;10374319;28;20467;-76
2023/11/23 20:07:43;;;;;;;1999.90;999.90;;;;;;;17.07;82.96;101229.50;10374083;28;20196;-75
2023/11/23 20:12:46;;;;;;;1999.90;999.90;;;;;;;16.32;87.06;101222.00;10374444;28;20045;-76
2023/11/23 20:17:49;;;;;;;1999.90;999.90;;;;;;;16.20;85.75;101222.91;10375198;28;20053;-73
2023/11/23 20:22:52;;;;;;;1999.90;999.90;;;;;;;16.72;88.14;101225.09;10374944;28;20057;-75
2023/11/23 20:27:55;;;;;;;1999.90;999.90;;;;;;;16.92;84.88;101222.75;10373566;28;20060;-75
2023/11/23 20:32:58;;;;;;;1999.90;999.90;;;;;;;16.01;88.93;101231.38;10373270;28;20527;-75
2023/11/23 20:38:01;;;;;;;1999.90;999.90;;;;;;;16.31;87.93;101209.75;10374057;28;20079;-74
2023/11/23 20:43:03;;;;;;;1999.90;999.90;;;;;;;16.90;82.97;101200.88;10374380;28;20046;-74
2023/11/23 20:48:05;;;;;;;1999.90;999.90;;;;;;;16.49;87.01;101186.34;10373318;28;20050;-74
2023/11/23 20:53:08;;;;;;;1999.90;999.90;;;;;;;16.54;88.03;101178.91;10372784;28;20046;-75
2023/11/23 20:58:11;;;;;;;1999.90;999.90;;;;;;;16.59;85.49;101197.91;10372605;28;20430;-75
2023/11/23 21:03:14;;;;;;;1999.90;999.90;;;;;;;17.07;84.00;101218.09;10373742;28;20089;-75
2023/11/23 21:08:18;;;;;;;1999.90;999.90;;;;;;;16.58;81.71;101203.34;10373777;28;20482;-75
2023/11/23 21:13:21;;;;;;;1999.90;999.90;;;;;;;16.28;81.37;101207.34;10372575;28;20074;-74
2023/11/23 21:18:23;;;;;;;1999.90;999.90;;;;;;;16.30;79.23;101223.91;10373717;28;20065;-75
2023/11/23 21:23:27;;;;;;;1999.90;999.90;;;;;;;16.19;79.37;101218.56;10379663;28;20465;-74
2023/11/23 21:28:30;;;;;;;1999.90;999.90;;;;;;;15.69;80.50;101222.16;10381071;28;20112;-75
2023/11/23 21:33:32;;;;;;;1999.90;999.90;;;;;;;15.31;82.29;101224.88;10381003;28;20072;-74
2023/11/23 21:38:35;;;;;;;1999.90;999.90;;;;;;;15.23;84.00;101222.78;10380586;28;20065;-75
2023/11/23 21:43:37;;;;;;;1999.90;999.90;;;;;;;15.29;83.25;101224.16;10379631;28;20057;-74
2023/11/23 21:48:40;;;;;;;1999.90;999.90;;;;;;;15.75;80.82;101221.75;10363162;28;20061;-74
2023/11/23 21:53:42;;;;;;;1999.90;999.90;;;;;;;15.86;81.18;101205.13;10380285;28;20054;-74
2023/11/23 21:58:45;;;;;;;1999.90;999.90;;;;;;;15.91;78.77;101199.50;10380729;28;20489;-74